createdAt,value
2019-06-20T14:52:54.190Z,90.41
2019-06-20T14:55:28.922Z,91.51
2019-06-20T14:58:02.678Z,91.37
2019-06-20T15:00:36.332Z,92.16
2019-06-20T15:03:09.874Z,92.68
2019-06-20T15:05:46.518Z,91.31
2019-06-20T15:08:20.268Z,91.75
2019-06-20T15:10:54.280Z,92.02
2019-06-20T15:13:28.540Z,92.36
2019-06-20T15:16:02.496Z,92.34
2019-06-20T15:18:36.256Z,91.96
2019-06-20T15:21:10.231Z,91.42
2019-06-20T15:23:43.994Z,90.47
2019-06-20T15:26:18.746Z,90.89
2019-06-20T15:28:54.741Z,90.36
2019-06-20T15:31:28.413Z,89.64
2019-06-20T15:34:02.032Z,88.61
2019-06-20T15:36:36.227Z,86.25
2019-06-20T15:39:09.894Z,85.37
2019-06-20T15:41:43.706Z,84.33
2019-06-20T15:44:17.486Z,83.06
2019-06-20T15:46:51.197Z,82.10
2019-06-20T15:49:25.608Z,80.02
2019-06-20T15:51:59.348Z,79.41
2019-06-20T15:54:33.602Z,77.17
2019-06-20T15:57:07.503Z,76.58
2019-06-20T15:59:42.255Z,75.96
2019-06-20T16:02:15.954Z,76.05
2019-06-20T16:04:51.903Z,76.74
2019-06-20T16:07:25.576Z,76.41
2019-06-20T16:09:59.586Z,76.56
2019-06-20T16:12:33.856Z,75.40
2019-06-20T16:15:08.642Z,77.32
2019-06-20T16:17:42.929Z,76.38
2019-06-20T16:20:17.767Z,77.21
2019-06-20T16:22:52.083Z,75.80
2019-06-20T16:25:25.761Z,75.12
2019-06-20T16:27:59.779Z,75.32
2019-06-20T16:30:33.870Z,75.47
2019-06-20T16:33:07.716Z,75.24
2019-06-20T16:35:41.982Z,76.38
2019-06-20T16:38:15.782Z,75.92
2019-06-20T16:40:50.467Z,76.90
2019-06-20T16:43:24.223Z,74.23
2019-06-20T16:45:58.583Z,73.66
2019-06-20T16:48:32.453Z,75.35
2019-06-20T16:51:07.678Z,76.83
2019-06-20T16:53:41.396Z,77.23
2019-06-20T16:56:15.048Z,76.99
2019-06-20T16:58:49.111Z,76.41
2019-06-20T17:01:23.021Z,76.78
2019-06-20T17:03:57.715Z,77.14
2019-06-20T17:06:31.626Z,73.84
2019-06-20T17:09:07.468Z,73.74
2019-06-20T17:11:42.421Z,74.76
2019-06-20T17:14:16.282Z,74.18
2019-06-20T17:16:50.498Z,75.17
2019-06-20T17:19:24.780Z,76.06
2019-06-20T17:21:59.003Z,75.93
2019-06-20T17:24:33.785Z,75.93
2019-06-20T17:27:07.570Z,74.05
2019-06-20T17:29:41.726Z,74.13
2019-06-20T17:32:18.125Z,74.37
2019-06-20T17:34:51.978Z,74.49
2019-06-20T17:37:28.715Z,76.74
2019-06-20T17:40:02.622Z,77.11
2019-06-20T17:42:36.890Z,76.33
2019-06-20T17:45:11.819Z,76.90
2019-06-20T17:47:45.622Z,77.34
2019-06-20T17:50:20.817Z,76.96
2019-06-20T17:52:54.822Z,77.99
2019-06-20T17:55:29.173Z,77.88
2019-06-20T17:58:04.333Z,78.50
2019-06-20T18:00:39.071Z,79.54
2019-06-20T18:03:13.128Z,79.23
2019-06-20T18:05:46.824Z,81.00
2019-06-20T18:08:20.828Z,81.60
2019-06-20T18:10:54.646Z,80.91
2019-06-20T18:13:28.527Z,82.36
2019-06-20T18:16:02.596Z,82.82
2019-06-20T18:18:36.393Z,82.04
2019-06-20T18:21:10.225Z,82.98
2019-06-20T18:23:44.393Z,83.40
2019-06-20T18:26:19.646Z,83.96
2019-06-20T18:28:53.504Z,84.42
2019-06-20T18:31:27.831Z,84.23
2019-06-20T18:34:01.867Z,84.19
2019-06-20T18:36:35.639Z,84.48
2019-06-20T18:39:12.806Z,84.02
2019-06-20T18:41:47.495Z,83.43
2019-06-20T18:44:22.579Z,84.54
2019-06-20T18:46:56.886Z,84.73
2019-06-20T18:49:31.032Z,84.82
2019-06-20T18:52:05.031Z,85.06
2019-06-20T18:54:38.684Z,85.03
2019-06-20T18:57:12.437Z,84.47
2019-06-20T18:59:46.597Z,84.46
2019-06-20T19:02:20.974Z,84.79
2019-06-20T19:04:54.862Z,85.16
2019-06-20T19:07:30.621Z,85.02
2019-06-20T19:10:07.747Z,85.56
2019-06-20T19:12:44.003Z,85.45
2019-06-20T19:15:18.896Z,85.75
2019-06-20T19:17:53.517Z,86.51
2019-06-20T19:20:28.518Z,87.58
2019-06-20T19:23:03.136Z,87.89
2019-06-20T19:25:39.368Z,87.94
2019-06-20T19:28:15.616Z,87.75
2019-06-20T19:30:51.232Z,88.02
2019-06-20T19:33:27.046Z,88.20
2019-06-20T19:36:01.962Z,88.27
2019-06-20T19:38:36.837Z,88.49
2019-06-20T19:41:12.883Z,88.48
2019-06-20T19:43:46.767Z,89.07
2019-06-20T19:46:21.458Z,89.13
2019-06-20T19:48:55.325Z,89.06
2019-06-20T19:51:29.147Z,89.28
2019-06-20T19:54:02.919Z,89.84
2019-06-20T19:56:36.936Z,90.42
2019-06-20T19:59:12.183Z,89.98
2019-06-20T20:01:47.263Z,90.45
2019-06-20T20:04:21.243Z,90.72
2019-06-20T20:06:55.291Z,90.71
2019-06-20T20:09:29.007Z,91.14
2019-06-20T20:12:02.831Z,90.97
2019-06-20T20:14:36.738Z,90.89
2019-06-20T20:17:12.460Z,91.31
2019-06-20T20:19:47.076Z,91.23
2019-06-20T20:22:22.185Z,90.98
2019-06-20T20:24:55.980Z,91.30
2019-06-20T20:27:29.868Z,91.39
2019-06-20T20:30:04.395Z,91.46
2019-06-20T20:32:38.634Z,91.32
2019-06-20T20:35:13.815Z,91.27
2019-06-20T20:37:47.679Z,91.41
2019-06-20T20:40:22.213Z,91.77
2019-06-20T20:42:56.270Z,92.53
2019-06-20T20:45:30.100Z,93.11
2019-06-20T20:48:04.356Z,93.86
2019-06-20T20:50:38.392Z,94.35
2019-06-20T20:53:12.171Z,94.07
2019-06-20T20:55:46.253Z,94.32
2019-06-20T20:58:20.088Z,94.17
2019-06-20T21:01:07.054Z,94.17
2019-06-20T21:03:40.908Z,94.09
2019-06-20T21:06:14.782Z,93.68
2019-06-20T21:08:49.094Z,93.29
2019-06-20T21:11:23.211Z,92.82
2019-06-20T21:13:57.114Z,92.75
2019-06-20T21:16:31.071Z,92.89
2019-06-20T21:19:04.856Z,93.37
2019-06-20T21:21:38.578Z,94.21
2019-06-20T21:24:12.768Z,94.06
2019-06-20T21:26:49.983Z,94.21
2019-06-20T21:29:22.120Z,94.71
2019-06-20T21:31:55.756Z,95.61
2019-06-20T21:34:29.873Z,95.58
2019-06-20T21:37:03.473Z,96.08
2019-06-20T21:39:38.817Z,96.15
2019-06-20T21:42:12.755Z,96.22
2019-06-20T21:44:46.948Z,96.35
2019-06-20T21:47:22.485Z,96.23
2019-06-20T21:49:56.207Z,96.42
2019-06-20T21:52:30.295Z,96.16
2019-06-20T21:55:05.284Z,96.02
2019-06-20T21:57:39.201Z,95.75
2019-06-20T22:00:22.901Z,95.62
2019-06-20T22:02:58.529Z,95.54
2019-06-20T22:05:33.119Z,95.36
2019-06-20T22:08:07.288Z,94.70
2019-06-20T22:10:41.164Z,94.33
2019-06-20T22:13:16.545Z,92.93
2019-06-20T22:15:50.584Z,92.58
2019-06-20T22:18:24.777Z,91.13
2019-06-20T22:20:59.743Z,90.64
2019-06-20T22:23:33.769Z,90.12
2019-06-20T22:26:07.457Z,89.22
2019-06-20T22:28:41.439Z,88.61
2019-06-20T22:31:15.779Z,88.52
2019-06-20T22:33:49.777Z,88.41
2019-06-20T22:36:39.213Z,88.21
2019-06-20T22:39:01.196Z,88.14
2019-06-20T22:41:36.940Z,88.27
2019-06-20T22:44:10.654Z,88.14
2019-06-20T22:46:44.552Z,87.80
2019-06-20T22:49:18.720Z,87.51
2019-06-20T22:51:52.475Z,87.03
2019-06-20T22:54:26.136Z,86.70
2019-06-20T22:57:00.462Z,86.45
2019-06-20T22:59:46.837Z,85.59
2019-06-20T23:02:20.499Z,85.92
2019-06-20T23:04:54.313Z,86.14
2019-06-20T23:07:28.683Z,85.81
2019-06-20T23:10:10.445Z,85.97
2019-06-20T23:12:39.238Z,86.28
2019-06-20T23:15:25.642Z,86.65
2019-06-20T23:17:59.444Z,87.19
2019-06-20T23:20:33.606Z,87.45
2019-06-20T23:23:07.274Z,87.55
2019-06-20T23:25:43.142Z,88.09
2019-06-20T23:28:17.546Z,88.40
2019-06-20T23:30:51.219Z,89.32
2019-06-20T23:33:24.813Z,89.83
2019-06-20T23:35:59.075Z,89.76
2019-06-20T23:38:33.193Z,89.95
2019-06-20T23:41:08.667Z,90.25
2019-06-20T23:43:42.294Z,90.48
2019-06-20T23:46:16.357Z,91.23
2019-06-20T23:48:49.997Z,91.35
2019-06-20T23:51:25.801Z,91.22
2019-06-20T23:54:00.197Z,91.20
2019-06-20T23:56:34.059Z,90.85
2019-06-20T23:59:08.053Z,90.84
